createdAt,value
2022-09-10T00:01:00.228Z,83.32
2022-09-10T00:03:27.497Z,82.59
2022-09-10T00:05:54.318Z,81.27
2022-09-10T00:08:21.998Z,80.96
2022-09-10T00:10:50.582Z,81.59
2022-09-10T00:13:21.712Z,82.23
2022-09-10T00:15:51.144Z,83.16
2022-09-10T00:18:19.493Z,82.45
2022-09-10T00:20:48.142Z,81.81
2022-09-10T00:23:16.175Z,82.11
2022-09-10T00:25:43.079Z,82.64
2022-09-10T00:28:09.952Z,83.10
2022-09-10T00:30:41.395Z,81.80
2022-09-10T00:33:08.521Z,81.56
2022-09-10T00:35:36.000Z,82.27
2022-09-10T00:38:03.478Z,83.02
2022-09-10T00:40:31.711Z,82.81
2022-09-10T00:42:58.773Z,81.45
2022-09-10T00:45:30.379Z,81.03
2022-09-10T00:48:03.558Z,81.61
2022-09-10T00:50:41.140Z,82.54
2022-09-10T00:53:09.693Z,83.60
2022-09-10T00:55:37.766Z,82.73
2022-09-10T00:58:05.983Z,81.19
2022-09-10T01:00:32.919Z,81.70
2022-09-10T01:02:59.805Z,82.36
2022-09-10T01:05:26.977Z,83.14
2022-09-10T01:07:53.981Z,82.84
2022-09-10T01:10:24.883Z,81.45
2022-09-10T01:13:12.124Z,81.46
2022-09-10T01:16:05.688Z,81.80
2022-09-10T01:19:00.041Z,83.05
2022-09-10T01:21:35.289Z,83.17
2022-09-10T01:24:29.971Z,81.95
2022-09-10T01:27:28.673Z,82.82
2022-09-10T01:30:06.259Z,83.45
2022-09-10T01:32:44.979Z,82.59
2022-09-10T01:35:28.408Z,81.91
2022-09-10T01:37:57.098Z,82.56
2022-09-10T01:40:29.984Z,82.67
2022-09-10T01:43:09.108Z,83.51
2022-09-10T01:46:25.582Z,82.66
2022-09-10T01:49:08.395Z,82.87
2022-09-10T01:51:43.671Z,83.25
2022-09-10T01:54:26.591Z,84.22
2022-09-10T01:57:28.563Z,82.93
2022-09-10T02:00:12.545Z,82.44
2022-09-10T02:02:53.009Z,82.57
2022-09-10T02:05:21.502Z,83.28
2022-09-10T02:07:54.335Z,82.92
2022-09-10T02:10:21.719Z,81.80
2022-09-10T02:12:49.040Z,81.73
2022-09-10T02:15:34.628Z,82.69
2022-09-10T02:18:32.462Z,84.15
2022-09-10T02:20:59.458Z,83.24
2022-09-10T02:23:37.413Z,81.70
2022-09-10T02:26:04.384Z,81.89
2022-09-10T02:28:31.490Z,82.58
2022-09-10T02:30:58.495Z,83.29
2022-09-10T02:33:26.656Z,82.89
2022-09-10T02:35:54.641Z,81.58
2022-09-10T02:38:21.573Z,81.25
2022-09-10T02:40:51.656Z,82.13
2022-09-10T02:43:18.629Z,82.71
2022-09-10T02:45:45.691Z,82.99
2022-09-10T02:48:13.276Z,82.38
2022-09-10T02:50:41.921Z,81.86
2022-09-10T02:53:09.560Z,82.40
2022-09-10T02:55:36.635Z,82.95
2022-09-10T02:58:03.581Z,83.05
2022-09-10T03:00:32.697Z,81.36
2022-09-10T03:03:03.065Z,81.23
2022-09-10T03:05:30.771Z,81.97
2022-09-10T03:07:57.921Z,83.04
2022-09-10T03:10:25.164Z,83.09
2022-09-10T03:12:52.647Z,81.57
2022-09-10T03:15:20.908Z,81.51
2022-09-10T03:17:47.849Z,82.15
2022-09-10T03:20:14.999Z,82.74
2022-09-10T03:22:41.961Z,83.46
2022-09-10T03:25:11.983Z,82.37
2022-09-10T03:27:39.543Z,81.83
2022-09-10T03:30:08.908Z,82.25
2022-09-10T03:32:35.874Z,82.83
2022-09-10T03:35:04.246Z,83.55
2022-09-10T03:37:31.734Z,82.80
2022-09-10T03:39:59.033Z,82.07
2022-09-10T03:42:25.995Z,82.12
2022-09-10T03:44:53.465Z,82.23
2022-09-10T03:47:20.301Z,83.65
2022-09-10T03:49:47.411Z,82.88
2022-09-10T03:52:14.485Z,81.27
2022-09-10T03:54:41.742Z,81.50
2022-09-10T03:57:08.795Z,82.38
2022-09-10T03:59:35.834Z,83.71
2022-09-10T04:02:03.330Z,83.81
2022-09-10T04:04:32.086Z,82.31
2022-09-10T04:06:59.198Z,81.78
2022-09-10T04:09:26.105Z,82.37
2022-09-10T04:11:53.123Z,82.94
2022-09-10T04:14:22.386Z,82.46
2022-09-10T04:16:49.752Z,81.77
2022-09-10T04:19:18.469Z,81.13
2022-09-10T04:21:46.852Z,82.48
2022-09-10T04:24:13.886Z,82.63
2022-09-10T04:26:42.101Z,83.66
2022-09-10T04:29:09.411Z,83.36
2022-09-10T04:31:36.508Z,82.08
2022-09-10T04:34:10.814Z,82.00
2022-09-10T04:36:37.821Z,82.00
2022-09-10T04:39:04.749Z,83.50
2022-09-10T04:41:31.953Z,83.49
2022-09-10T04:43:59.175Z,81.57
2022-09-10T04:46:26.347Z,81.51
2022-09-10T04:48:55.012Z,82.13
2022-09-10T04:51:24.204Z,82.63
2022-09-10T04:53:54.044Z,82.31
2022-09-10T04:56:25.261Z,80.98
2022-09-10T04:58:52.308Z,80.78
2022-09-10T05:01:19.933Z,81.41
2022-09-10T05:03:50.496Z,82.06
2022-09-10T05:06:19.080Z,83.37
2022-09-10T05:08:47.171Z,82.99
2022-09-10T05:11:14.204Z,81.68
2022-09-10T05:13:41.870Z,82.15
2022-09-10T05:16:09.242Z,83.34
2022-09-10T05:18:36.313Z,84.14
2022-09-10T05:21:05.562Z,82.67
2022-09-10T05:23:33.738Z,82.08
2022-09-10T05:26:01.538Z,82.11
2022-09-10T05:28:28.671Z,82.80
2022-09-10T05:30:55.777Z,83.81
2022-09-10T05:33:25.001Z,83.39
2022-09-10T05:35:52.152Z,81.49
2022-09-10T05:38:20.389Z,81.70
2022-09-10T05:40:48.422Z,81.92
2022-09-10T05:43:15.552Z,82.67
2022-09-10T05:45:44.240Z,82.40
2022-09-10T05:48:11.274Z,81.09
2022-09-10T05:50:38.774Z,80.95
2022-09-10T05:53:05.984Z,81.19
2022-09-10T05:55:33.421Z,82.98
2022-09-10T05:58:00.762Z,83.70
2022-09-10T06:00:27.890Z,82.21
2022-09-10T06:02:59.763Z,81.85
2022-09-10T06:05:31.073Z,82.09
2022-09-10T06:07:58.097Z,82.48
2022-09-10T06:10:25.211Z,83.06
2022-09-10T06:12:52.219Z,81.79
2022-09-10T06:15:20.164Z,81.53
2022-09-10T06:17:48.742Z,81.05
2022-09-10T06:20:16.509Z,81.55
2022-09-10T06:22:44.797Z,83.01
2022-09-10T06:25:12.703Z,82.24
2022-09-10T06:27:41.036Z,81.16
2022-09-10T06:30:08.930Z,81.13
2022-09-10T06:32:39.563Z,81.11
2022-09-10T06:35:09.341Z,81.63
2022-09-10T06:37:37.033Z,81.67
2022-09-10T06:40:07.418Z,80.73
2022-09-10T06:42:35.089Z,80.82
2022-09-10T06:45:14.020Z,81.37
2022-09-10T06:50:56.261Z,81.78
2022-09-10T06:53:28.770Z,81.52
2022-09-10T06:55:56.174Z,81.30
2022-09-10T06:58:24.794Z,81.56
2022-09-10T07:00:52.386Z,82.47
2022-09-10T07:03:21.483Z,82.08
2022-09-10T07:05:49.118Z,80.72
2022-09-10T07:08:16.926Z,80.59
2022-09-10T07:10:45.062Z,81.16
2022-09-10T07:13:15.741Z,82.19
2022-09-10T07:15:46.920Z,82.38
2022-09-10T07:18:14.654Z,81.80
2022-09-10T07:20:45.850Z,79.78
2022-09-10T07:23:13.746Z,79.62
2022-09-10T07:25:42.138Z,80.02
2022-09-10T07:28:18.228Z,80.70
2022-09-10T07:30:47.656Z,82.21
2022-09-10T07:33:15.609Z,81.37
2022-09-10T07:35:44.358Z,79.86
2022-09-10T07:38:14.275Z,79.68
2022-09-10T07:40:43.969Z,80.03
2022-09-10T07:43:11.132Z,80.82
2022-09-10T07:45:40.552Z,81.53
2022-09-10T07:48:08.776Z,80.13
2022-09-10T07:50:38.527Z,79.43
2022-09-10T07:53:06.437Z,79.35
2022-09-10T07:55:34.365Z,80.89
2022-09-10T07:58:01.606Z,81.87
2022-09-10T08:00:31.095Z,81.02
2022-09-10T08:02:59.084Z,79.79
2022-09-10T08:05:27.754Z,80.22
2022-09-10T08:07:55.343Z,80.67
2022-09-10T08:10:22.988Z,81.77
2022-09-10T08:12:50.305Z,81.64
2022-09-10T08:15:18.412Z,80.62
2022-09-10T08:17:45.973Z,80.48
2022-09-10T08:20:13.766Z,81.61
2022-09-10T08:22:43.144Z,81.60
2022-09-10T08:25:11.059Z,83.05
2022-09-10T08:27:38.781Z,81.44
2022-09-10T08:30:08.681Z,80.85
2022-09-10T08:32:37.167Z,81.20
2022-09-10T08:35:06.016Z,82.19
2022-09-10T08:37:34.435Z,82.10
2022-09-10T08:40:02.089Z,80.16
2022-09-10T08:42:32.987Z,79.54
2022-09-10T08:45:22.064Z,80.05
2022-09-10T08:47:56.225Z,80.62
2022-09-10T08:50:36.288Z,82.18
2022-09-10T08:53:17.245Z,80.27
2022-09-10T08:55:48.364Z,79.52
2022-09-10T08:58:25.299Z,79.50
2022-09-10T09:00:57.881Z,80.80
2022-09-10T09:03:32.861Z,81.29
2022-09-10T09:06:02.019Z,80.61
2022-09-10T09:08:35.830Z,79.89
2022-09-10T09:11:17.772Z,79.81
2022-09-10T09:13:56.390Z,80.84
2022-09-10T09:16:27.981Z,81.88
2022-09-10T09:19:01.335Z,81.28
2022-09-10T09:22:03.404Z,80.03
2022-09-10T09:24:54.435Z,80.26
2022-09-10T09:27:21.666Z,82.05
2022-09-10T09:30:01.615Z,82.52
2022-09-10T09:32:30.007Z,81.66
2022-09-10T09:35:07.138Z,80.66
2022-09-10T09:37:35.247Z,80.86
2022-09-10T09:40:15.275Z,81.70
2022-09-10T09:43:04.056Z,82.63
2022-09-10T09:45:38.997Z,81.12
2022-09-10T09:48:07.269Z,79.91
2022-09-10T09:50:35.363Z,81.45
2022-09-10T09:53:02.284Z,82.06
2022-09-10T09:55:41.004Z,82.51
2022-09-10T09:58:30.183Z,82.70
2022-09-10T10:01:03.563Z,81.82
2022-09-10T10:03:31.294Z,81.58
2022-09-10T10:06:02.519Z,83.17
2022-09-10T10:08:34.243Z,84.37
2022-09-10T10:11:01.177Z,82.92
2022-09-10T10:13:42.331Z,81.32
2022-09-10T10:16:33.987Z,82.59
2022-09-10T10:19:00.923Z,83.10
2022-09-10T10:21:31.972Z,83.40
2022-09-10T10:23:59.221Z,82.54
2022-09-10T10:26:35.685Z,82.86
2022-09-10T10:29:26.696Z,83.56
2022-09-10T10:31:53.946Z,84.16
2022-09-10T10:34:45.444Z,82.57
2022-09-10T10:37:45.792Z,81.78
2022-09-10T10:40:26.652Z,82.68
2022-09-10T10:43:21.004Z,84.03
2022-09-10T10:46:07.669Z,83.60
2022-09-10T10:48:47.469Z,82.59
2022-09-10T10:51:24.282Z,82.18
2022-09-10T10:54:03.156Z,83.14
2022-09-10T10:56:37.422Z,84.08
2022-09-10T10:59:23.777Z,83.08
2022-09-10T11:01:54.665Z,82.05
2022-09-10T11:04:42.429Z,82.59
2022-09-10T11:07:28.905Z,83.59
2022-09-10T11:10:00.759Z,84.44
2022-09-10T11:12:30.260Z,83.07
2022-09-10T11:15:13.593Z,81.69
2022-09-10T11:17:46.627Z,81.33
2022-09-10T11:20:28.547Z,82.44
2022-09-10T11:23:21.732Z,84.37
2022-09-10T11:26:17.812Z,82.95
2022-09-10T11:29:08.032Z,82.18
2022-09-10T11:31:37.072Z,82.55
2022-09-10T11:34:07.025Z,83.78
2022-09-10T11:36:58.096Z,82.83
2022-09-10T11:39:38.976Z,81.59
2022-09-10T11:42:17.693Z,82.07
2022-09-10T11:45:06.831Z,82.66
2022-09-10T11:47:37.519Z,83.97
2022-09-10T11:50:11.119Z,82.15
2022-09-10T11:52:38.296Z,81.37
2022-09-10T11:55:08.613Z,81.86
2022-09-10T11:58:03.743Z,82.86
2022-09-10T12:00:31.202Z,83.39
2022-09-10T12:03:30.555Z,82.49
2022-09-10T12:06:10.760Z,82.27
2022-09-10T12:08:52.761Z,83.38
2022-09-10T12:11:48.112Z,83.82
2022-09-10T12:14:19.780Z,82.93
2022-09-10T12:16:50.497Z,82.51
2022-09-10T12:19:29.998Z,83.11
2022-09-10T12:21:59.504Z,83.60
2022-09-10T12:24:36.652Z,85.20
2022-09-10T12:27:05.529Z,83.45
2022-09-10T12:29:42.472Z,82.34
2022-09-10T12:32:15.626Z,82.65
2022-09-10T12:34:42.618Z,83.56
2022-09-10T12:37:28.030Z,84.94
2022-09-10T12:40:40.382Z,83.82
2022-09-10T12:43:43.687Z,82.63
2022-09-10T12:46:10.771Z,84.42
2022-09-10T12:48:56.409Z,85.13
2022-09-10T12:51:35.540Z,84.48
2022-09-10T12:54:27.254Z,83.86
2022-09-10T12:56:54.107Z,84.90
2022-09-10T12:59:30.554Z,85.89
2022-09-10T13:01:57.609Z,85.22
2022-09-10T13:04:28.871Z,84.43
2022-09-10T13:07:06.381Z,84.22
2022-09-10T13:09:36.080Z,85.28
2022-09-10T13:12:05.788Z,84.80
2022-09-10T13:14:40.512Z,83.34
2022-09-10T13:17:30.119Z,83.99
2022-09-10T13:19:57.242Z,84.95
2022-09-10T13:22:31.374Z,85.18
2022-09-10T13:25:35.143Z,83.71
2022-09-10T13:28:02.821Z,83.79
2022-09-10T13:30:29.764Z,85.48
2022-09-10T13:33:01.967Z,85.29
2022-09-10T13:35:41.464Z,84.26
2022-09-10T13:38:47.431Z,83.93
2022-09-10T13:41:37.263Z,85.32
2022-09-10T13:44:15.892Z,84.74
2022-09-10T13:46:48.291Z,83.42
2022-09-10T13:49:53.034Z,84.13
2022-09-10T13:52:22.743Z,85.47
2022-09-10T13:54:51.721Z,86.04
2022-09-10T13:57:26.801Z,84.76
2022-09-10T13:59:59.823Z,84.45
2022-09-10T14:02:45.798Z,84.08
2022-09-10T14:05:34.405Z,86.17
2022-09-10T14:08:17.880Z,84.88
2022-09-10T14:10:53.016Z,84.44
2022-09-10T14:13:23.770Z,84.44
2022-09-10T14:15:51.441Z,84.95
2022-09-10T14:18:18.830Z,83.60
2022-09-10T14:20:45.862Z,83.26
2022-09-10T14:23:16.370Z,83.47
2022-09-10T14:25:45.216Z,84.60
2022-09-10T14:28:12.132Z,84.08
2022-09-10T14:30:39.228Z,83.30
2022-09-10T14:33:34.900Z,83.59
2022-09-10T14:36:30.220Z,84.17
2022-09-10T14:39:00.123Z,82.96
2022-09-10T14:41:28.756Z,82.95
2022-09-10T14:44:15.502Z,83.67
2022-09-10T14:47:13.186Z,84.50
2022-09-10T14:49:41.663Z,83.51
2022-09-10T14:52:08.749Z,82.82
2022-09-10T14:54:35.870Z,82.84
2022-09-10T14:57:04.653Z,84.17
2022-09-10T14:59:33.197Z,83.88
2022-09-10T15:02:01.201Z,82.98
2022-09-10T15:04:30.311Z,83.27
2022-09-10T15:06:58.799Z,84.08
2022-09-10T15:09:27.258Z,84.41
2022-09-10T15:12:05.811Z,83.69
2022-09-10T15:14:33.849Z,83.21
2022-09-10T15:17:00.792Z,83.85
2022-09-10T15:19:28.252Z,84.35
2022-09-10T15:21:56.537Z,83.80
2022-09-10T15:24:23.931Z,83.20
2022-09-10T15:26:51.029Z,83.04
2022-09-10T15:29:18.183Z,83.82
2022-09-10T15:31:45.331Z,84.40
2022-09-10T15:34:12.382Z,83.69
2022-09-10T15:36:40.111Z,83.23
2022-09-10T15:39:07.756Z,84.10
2022-09-10T15:41:34.646Z,84.87
2022-09-10T15:44:02.103Z,84.33
2022-09-10T15:46:29.762Z,83.67
2022-09-10T15:48:58.834Z,84.03
2022-09-10T15:51:26.040Z,84.39
2022-09-10T15:53:54.286Z,84.56
2022-09-10T15:56:22.023Z,83.41
2022-09-10T15:58:55.207Z,83.49
2022-09-10T16:01:22.939Z,84.57
2022-09-10T16:03:57.395Z,85.10
2022-09-10T16:06:27.530Z,83.80
2022-09-10T16:09:01.002Z,83.67
2022-09-10T16:11:30.429Z,84.65
2022-09-10T16:14:02.177Z,85.51
2022-09-10T16:16:31.731Z,84.16
2022-09-10T16:18:58.658Z,83.59
2022-09-10T16:21:27.857Z,84.14
2022-09-10T16:23:55.921Z,85.10
2022-09-10T16:26:25.156Z,84.66
2022-09-10T16:28:53.297Z,83.47
2022-09-10T16:31:24.603Z,83.75
2022-09-10T16:33:55.027Z,84.52
2022-09-10T16:36:23.844Z,85.08
2022-09-10T16:38:55.425Z,83.54
2022-09-10T16:41:23.384Z,83.35
2022-09-10T16:43:50.711Z,84.18
2022-09-10T16:46:17.816Z,85.07
2022-09-10T16:48:46.313Z,84.71
2022-09-10T16:51:17.304Z,83.78
2022-09-10T16:53:45.281Z,83.45
2022-09-10T16:56:14.525Z,84.01
2022-09-10T16:58:42.019Z,85.27
2022-09-10T17:01:09.695Z,84.44
2022-09-10T17:03:40.595Z,83.22
2022-09-10T17:06:16.613Z,83.40
2022-09-10T17:08:45.478Z,84.26
2022-09-10T17:11:14.572Z,85.16
2022-09-10T17:13:41.739Z,84.72
2022-09-10T17:16:12.795Z,83.32
2022-09-10T17:18:39.949Z,83.28
2022-09-10T17:21:09.667Z,83.89
2022-09-10T17:23:36.773Z,84.89
2022-09-10T17:26:07.902Z,83.75
2022-09-10T17:28:36.199Z,82.80
2022-09-10T17:31:03.259Z,82.81
2022-09-10T17:33:30.321Z,83.77
2022-09-10T17:35:58.059Z,84.53
2022-09-10T17:38:25.406Z,83.33
2022-09-10T17:41:01.490Z,82.07
2022-09-10T17:43:29.537Z,82.40
2022-09-10T17:45:56.480Z,83.46
2022-09-10T17:48:27.652Z,84.32
2022-09-10T17:50:55.290Z,83.61
2022-09-10T17:53:22.199Z,82.25
2022-09-10T17:55:49.286Z,82.21
2022-09-10T17:58:17.043Z,82.94
2022-09-10T18:00:48.833Z,83.91
2022-09-10T18:14:16.880Z,85.62
2022-09-10T18:16:45.037Z,84.89
2022-09-10T18:19:15.458Z,84.20
2022-09-10T18:21:43.967Z,84.62
2022-09-10T18:24:18.496Z,85.40
2022-09-10T18:26:46.739Z,86.15
2022-09-10T18:29:21.880Z,85.32
2022-09-10T18:31:51.280Z,85.16
2022-09-10T18:34:23.349Z,85.72
2022-09-10T18:36:53.826Z,86.70
2022-09-10T18:39:21.483Z,85.57
2022-09-10T18:41:48.491Z,84.65
2022-09-10T18:44:21.264Z,85.00
2022-09-10T18:46:49.332Z,86.02
2022-09-10T18:49:20.977Z,85.22
2022-09-10T18:51:48.761Z,84.23
2022-09-10T18:54:16.013Z,84.40
2022-09-10T18:56:46.541Z,85.21
2022-09-10T18:59:16.006Z,85.79
2022-09-10T19:01:45.040Z,84.54
2022-09-10T19:04:14.331Z,84.47
2022-09-10T19:06:43.131Z,85.24
2022-09-10T19:09:11.706Z,85.74
2022-09-10T19:11:40.191Z,85.04
2022-09-10T19:14:19.418Z,84.79
2022-09-10T19:16:47.621Z,85.80
2022-09-10T19:19:18.249Z,86.90
2022-09-10T19:21:49.981Z,86.32
2022-09-10T19:24:17.470Z,85.77
2022-09-10T19:26:45.409Z,86.70
2022-09-10T19:29:16.457Z,86.56
2022-09-10T19:31:44.132Z,86.27
2022-09-10T19:34:11.668Z,86.65
2022-09-10T19:36:39.748Z,87.47
2022-09-10T19:39:08.838Z,86.04
2022-09-10T19:41:38.546Z,86.56
2022-09-10T19:44:06.822Z,88.12
2022-09-10T19:46:36.184Z,87.10
2022-09-10T19:49:04.806Z,85.67
2022-09-10T19:51:33.561Z,85.33
2022-09-10T19:54:00.846Z,86.34
2022-09-10T19:56:32.901Z,86.66
2022-09-10T19:59:01.951Z,85.39
2022-09-10T20:01:30.923Z,85.57
2022-09-10T20:04:01.835Z,86.20
2022-09-10T20:06:30.373Z,83.73
2022-09-10T20:08:57.364Z,83.18
2022-09-10T20:11:27.064Z,82.06
2022-09-10T20:13:56.288Z,82.66
2022-09-10T20:16:24.509Z,83.27
2022-09-10T20:18:51.593Z,83.47
2022-09-10T20:21:21.475Z,84.36
2022-09-10T20:23:50.394Z,84.36
2022-09-10T20:26:24.820Z,83.32
2022-09-10T20:28:55.129Z,83.00
2022-09-10T20:31:22.808Z,83.44
2022-09-10T20:33:53.743Z,84.15
2022-09-10T20:36:21.407Z,84.01
2022-09-10T20:38:49.071Z,83.46
2022-09-10T20:41:16.082Z,84.16
2022-09-10T20:43:43.368Z,85.00
2022-09-10T20:46:15.450Z,85.53
2022-09-10T20:48:48.310Z,84.76
2022-09-10T20:51:17.417Z,84.11
2022-09-10T20:53:44.778Z,84.41
2022-09-10T20:56:18.456Z,83.99
2022-09-10T20:58:46.139Z,83.78
2022-09-10T21:01:14.348Z,83.36
2022-09-10T21:03:41.580Z,83.93
2022-09-10T21:06:12.906Z,84.87
2022-09-10T21:08:41.381Z,83.16
2022-09-10T21:11:11.833Z,83.71
2022-09-10T21:13:45.486Z,85.40
2022-09-10T21:16:17.262Z,85.81
2022-09-10T21:18:54.724Z,83.50
2022-09-10T21:21:24.753Z,83.04
2022-09-10T21:23:55.995Z,83.61
2022-09-10T21:26:25.330Z,84.46
2022-09-10T21:29:01.991Z,83.70
2022-09-10T21:31:29.744Z,82.97
2022-09-10T21:34:02.456Z,83.32
2022-09-10T21:36:31.564Z,84.49
2022-09-10T21:38:59.798Z,83.28
2022-09-10T21:41:39.067Z,82.22
2022-09-10T21:44:22.583Z,82.53
2022-09-10T21:46:49.379Z,83.08
2022-09-10T21:49:16.576Z,82.83
2022-09-10T21:51:43.540Z,81.60
2022-09-10T21:54:16.500Z,81.10
2022-09-10T21:56:43.295Z,81.51
2022-09-10T21:59:11.838Z,82.06
2022-09-10T22:01:39.985Z,80.89
2022-09-10T22:04:07.025Z,80.36
2022-09-10T22:06:34.920Z,80.65
2022-09-10T22:09:06.979Z,81.90
2022-09-10T22:11:36.143Z,81.82
2022-09-10T22:14:13.619Z,80.85
2022-09-10T22:16:40.311Z,80.46
2022-09-10T22:19:09.245Z,81.11
2022-09-10T22:21:37.788Z,82.11
2022-09-10T22:24:05.880Z,82.87
2022-09-10T22:26:32.892Z,82.11
2022-09-10T22:29:00.364Z,81.01
2022-09-10T22:31:28.844Z,81.40
2022-09-10T22:33:57.640Z,82.01
2022-09-10T22:36:28.364Z,82.77
2022-09-10T22:39:03.187Z,81.45
2022-09-10T22:41:33.487Z,80.53
2022-09-10T22:44:01.077Z,80.66
2022-09-10T22:46:28.805Z,81.19
2022-09-10T22:48:55.791Z,82.05
2022-09-10T22:51:28.054Z,81.04
2022-09-10T22:53:55.617Z,80.10
2022-09-10T22:56:24.301Z,80.46
2022-09-10T22:58:51.660Z,81.41
2022-09-10T23:01:20.310Z,81.96
2022-09-10T23:03:47.945Z,81.56
2022-09-10T23:06:17.117Z,79.81
2022-09-10T23:08:46.240Z,79.88
2022-09-10T23:11:20.516Z,80.71
2022-09-10T23:13:49.403Z,81.32
2022-09-10T23:16:24.904Z,82.47
2022-09-10T23:18:54.234Z,81.54
2022-09-10T23:21:23.302Z,81.33
2022-09-10T23:23:51.824Z,81.88
2022-09-10T23:26:19.181Z,83.18
2022-09-10T23:28:46.222Z,83.26
2022-09-10T23:31:24.194Z,81.62
2022-09-10T23:33:57.718Z,81.53
2022-09-10T23:36:26.213Z,81.97
2022-09-10T23:38:52.947Z,82.88
2022-09-10T23:41:21.229Z,82.08
2022-09-10T23:43:48.376Z,80.60
2022-09-10T23:46:15.786Z,80.61
2022-09-10T23:48:42.880Z,81.46
2022-09-10T23:51:13.204Z,81.88
2022-09-10T23:53:40.561Z,82.14
2022-09-10T23:56:07.993Z,81.46
2022-09-10T23:58:34.864Z,80.99
